createdAt,value
2018-06-16T00:00:15.002Z,101136.38
2018-06-16T00:01:20.469Z,101140.91
2018-06-16T00:02:25.997Z,101140.77
2018-06-16T00:03:31.436Z,101134.50
2018-06-16T00:04:36.858Z,101137.63
2018-06-16T00:05:42.337Z,101142.74
2018-06-16T00:06:47.774Z,101139.22
2018-06-16T00:07:53.430Z,101143.61
2018-06-16T00:08:58.880Z,101141.33
2018-06-16T00:10:04.374Z,101137.41
2018-06-16T00:11:10.024Z,101137.27
2018-06-16T00:12:15.444Z,101137.41
2018-06-16T00:13:20.973Z,101141.06
2018-06-16T00:14:26.590Z,101138.84
2018-06-16T00:15:32.114Z,101135.81
2018-06-16T00:16:37.593Z,101137.54
2018-06-16T00:17:43.036Z,101137.17
2018-06-16T00:18:48.462Z,101134.45
2018-06-16T00:19:53.931Z,101131.52
2018-06-16T00:20:59.349Z,101133.36
2018-06-16T00:22:04.970Z,101135.95
2018-06-16T00:23:10.422Z,101137.17
2018-06-16T00:24:15.948Z,101134.15
2018-06-16T00:25:21.492Z,101137.10
2018-06-16T00:26:26.909Z,101137.77
2018-06-16T00:27:32.476Z,101135.47
2018-06-16T00:28:38.070Z,101133.41
2018-06-16T00:29:43.474Z,101134.83
2018-06-16T00:30:48.876Z,101132.30
2018-06-16T00:31:54.304Z,101138.41
2018-06-16T00:32:59.873Z,101137.48
2018-06-16T00:34:05.367Z,101142.60
2018-06-16T00:35:10.833Z,101134.59
2018-06-16T00:36:16.244Z,101133.77
2018-06-16T00:37:22.196Z,101131.95
2018-06-16T00:38:27.632Z,101136.06
2018-06-16T00:39:33.324Z,101139.55
2018-06-16T00:40:38.763Z,101132.37
2018-06-16T00:41:44.346Z,101140.84
2018-06-16T00:42:49.777Z,101132.77
2018-06-16T00:43:55.202Z,101134.83
2018-06-16T00:45:00.628Z,101131.84
2018-06-16T00:46:06.088Z,101130.02
2018-06-16T00:47:11.505Z,101129.13
2018-06-16T00:48:16.977Z,101134.30
2018-06-16T00:49:22.525Z,101126.14
2018-06-16T00:50:27.989Z,101125.95
2018-06-16T00:51:33.420Z,101127.89
2018-06-16T00:52:39.008Z,101124.84
2018-06-16T00:53:44.653Z,101125.31
2018-06-16T00:54:50.061Z,101122.48
2018-06-16T00:55:55.469Z,101124.30
2018-06-16T00:57:17.757Z,101125.20
2018-06-16T00:58:23.191Z,101121.22
2018-06-16T00:59:28.650Z,101124.69
2018-06-16T01:00:34.090Z,101127.80
2018-06-16T01:01:39.490Z,101128.63
2018-06-16T01:02:44.926Z,101126.94
2018-06-16T01:03:50.349Z,101124.87
2018-06-16T01:04:55.955Z,101124.34
2018-06-16T01:06:01.361Z,101124.50
2018-06-16T01:07:07.589Z,101132.80
2018-06-16T01:08:12.957Z,101127.03
2018-06-16T01:09:18.385Z,101126.04
2018-06-16T01:10:23.812Z,101123.92
2018-06-16T01:11:29.224Z,101123.85
2018-06-16T01:12:34.626Z,101117.69
2018-06-16T01:13:40.096Z,101118.58
2018-06-16T01:14:45.522Z,101109.39
2018-06-16T01:15:50.917Z,101106.62
2018-06-16T01:16:56.433Z,101109.64
2018-06-16T01:18:01.847Z,101110.56
2018-06-16T01:19:07.392Z,101101.37
2018-06-16T01:20:12.813Z,101102.05
2018-06-16T01:21:18.239Z,101101.95
2018-06-16T01:22:23.648Z,101101.89
2018-06-16T01:23:29.074Z,101101.42
2018-06-16T01:24:34.695Z,101107.24
2018-06-16T01:25:40.105Z,101096.95
2018-06-16T01:26:45.706Z,101099.77
2018-06-16T01:27:51.121Z,101100.19
2018-06-16T01:28:56.546Z,101103.67
2018-06-16T01:30:02.030Z,101098.26
2018-06-16T01:31:07.522Z,101100.84
2018-06-16T01:32:12.914Z,101106.98
2018-06-16T01:33:18.392Z,101106.80
2018-06-16T01:34:23.791Z,101108.45
2018-06-16T01:35:29.400Z,101110.93
2018-06-16T01:36:34.824Z,101110.63
2018-06-16T01:37:40.249Z,101108.23
2018-06-16T01:38:45.652Z,101107.22
2018-06-16T01:39:51.058Z,101109.62
2018-06-16T01:40:56.687Z,101112.03
2018-06-16T01:42:02.122Z,101105.62
2018-06-16T01:43:07.577Z,101104.33
2018-06-16T01:44:13.025Z,101110.80
2018-06-16T01:45:18.428Z,101104.78
2018-06-16T01:46:24.100Z,101105.62
2018-06-16T01:47:29.554Z,101108.79
2018-06-16T01:48:34.960Z,101103.67
2018-06-16T01:49:40.348Z,101104.84
2018-06-16T01:50:45.752Z,101097.08
2018-06-16T01:51:51.393Z,101102.38
2018-06-16T01:52:56.809Z,101101.67
2018-06-16T01:54:02.256Z,101101.80
2018-06-16T01:55:07.679Z,101104.84
2018-06-16T01:56:13.106Z,101106.14
2018-06-16T01:57:18.569Z,101101.89
2018-06-16T01:58:23.981Z,101098.31
2018-06-16T01:59:29.409Z,101102.59
2018-06-16T02:00:34.846Z,101103.37
2018-06-16T02:01:40.130Z,101101.92
2018-06-16T02:02:45.580Z,101096.68
2018-06-16T02:03:51.004Z,101099.67
2018-06-16T02:04:56.603Z,101099.27
2018-06-16T02:06:02.062Z,101106.02
2018-06-16T02:07:07.526Z,101094.37
2018-06-16T02:08:12.961Z,101100.38
2018-06-16T02:09:18.465Z,101088.21
2018-06-16T02:10:23.931Z,101096.03
2018-06-16T02:11:29.322Z,101099.86
2018-06-16T02:12:34.757Z,101094.55
2018-06-16T02:13:40.156Z,101089.69
2018-06-16T02:14:45.664Z,101088.39
2018-06-16T02:15:51.279Z,101095.33
2018-06-16T02:16:56.697Z,101091.20
2018-06-16T02:18:02.118Z,101089.97
2018-06-16T02:19:07.548Z,101093.14
2018-06-16T02:20:12.985Z,101091.91
2018-06-16T02:21:18.466Z,101093.55
2018-06-16T02:22:23.866Z,101093.78
2018-06-16T02:23:29.273Z,101091.72
2018-06-16T02:24:34.659Z,101098.84
2018-06-16T02:25:40.102Z,101093.02
2018-06-16T02:26:45.551Z,101094.77
2018-06-16T02:27:50.936Z,101095.81
2018-06-16T02:28:56.328Z,101093.34
2018-06-16T02:30:01.752Z,101092.17
2018-06-16T02:31:07.167Z,101091.67
2018-06-16T02:32:12.617Z,101088.70
2018-06-16T02:33:18.098Z,101092.50
2018-06-16T02:34:23.544Z,101093.36
2018-06-16T02:35:28.976Z,101096.63
2018-06-16T02:36:34.399Z,101098.70
2018-06-16T02:37:39.868Z,101098.90
2018-06-16T02:38:45.366Z,101099.82
2018-06-16T02:39:50.782Z,101097.72
2018-06-16T02:40:56.209Z,101100.25
2018-06-16T02:42:01.626Z,101096.52
2018-06-16T02:43:07.057Z,101093.27
2018-06-16T02:44:12.444Z,101098.98
2018-06-16T02:45:17.862Z,101101.63
2018-06-16T02:46:23.397Z,101095.68
2018-06-16T02:47:28.703Z,101105.83
2018-06-16T02:48:34.014Z,101101.11
2018-06-16T02:49:39.430Z,101097.30
2018-06-16T02:50:44.874Z,101097.30
2018-06-16T02:51:50.486Z,101094.30
2018-06-16T02:52:55.931Z,101085.25
2018-06-16T02:54:01.367Z,101094.13
2018-06-16T02:55:07.021Z,101088.04
2018-06-16T02:57:16.709Z,101085.86
2018-06-16T02:58:22.118Z,101087.90
2018-06-16T02:59:27.533Z,101087.13
2018-06-16T03:00:32.949Z,101084.31
2018-06-16T03:01:38.354Z,101082.44
2018-06-16T03:02:43.826Z,101088.64
2018-06-16T03:03:49.257Z,101088.23
2018-06-16T03:04:54.722Z,101094.84
2018-06-16T03:06:00.125Z,101091.40
2018-06-16T03:07:05.598Z,101091.40
2018-06-16T03:08:10.993Z,101094.50
2018-06-16T03:09:16.582Z,101093.55
2018-06-16T03:10:21.986Z,101089.27
2018-06-16T03:11:27.535Z,101087.67
2018-06-16T03:12:32.945Z,101094.87
2018-06-16T03:13:38.337Z,101091.98
2018-06-16T03:14:43.924Z,101083.30
2018-06-16T03:15:49.351Z,101081.32
2018-06-16T03:16:54.882Z,101079.97
2018-06-16T03:18:00.286Z,101080.23
2018-06-16T03:19:05.708Z,101083.98
2018-06-16T03:20:11.145Z,101078.77
2018-06-16T03:21:16.580Z,101080.05
2018-06-16T03:22:22.005Z,101080.89
2018-06-16T03:23:27.427Z,101080.94
2018-06-16T03:24:32.886Z,101082.56
2018-06-16T03:25:38.347Z,101079.40
2018-06-16T03:26:43.765Z,101081.00
2018-06-16T03:27:49.218Z,101078.56
2018-06-16T03:28:54.681Z,101074.59
2018-06-16T03:30:00.189Z,101070.29
2018-06-16T03:31:05.709Z,101074.17
2018-06-16T03:32:11.114Z,101078.36
2018-06-16T03:33:16.792Z,101071.95
2018-06-16T03:34:22.254Z,101077.06
2018-06-16T03:35:27.649Z,101069.72
2018-06-16T03:36:33.097Z,101071.29
2018-06-16T03:37:38.517Z,101075.57
2018-06-16T03:38:43.929Z,101073.81
2018-06-16T03:39:49.372Z,101067.30
2018-06-16T03:40:55.013Z,101068.19
2018-06-16T03:42:00.417Z,101068.13
2018-06-16T03:43:05.941Z,101068.13
2018-06-16T03:44:11.411Z,101073.05
2018-06-16T03:45:16.843Z,101072.13
2018-06-16T03:46:22.293Z,101066.58
2018-06-16T03:47:27.970Z,101076.46
2018-06-16T03:48:33.372Z,101069.94
2018-06-16T03:49:39.013Z,101073.36
2018-06-16T03:50:44.465Z,101074.59
2018-06-16T03:51:49.932Z,101069.83
2018-06-16T03:52:55.490Z,101074.41
2018-06-16T03:54:00.913Z,101072.91
2018-06-16T03:55:06.355Z,101069.22
2018-06-16T03:56:11.781Z,101072.16
2018-06-16T03:57:17.206Z,101069.47
2018-06-16T03:58:22.644Z,101072.34
2018-06-16T03:59:28.070Z,101073.58
2018-06-16T04:00:33.453Z,101069.95
2018-06-16T04:01:38.877Z,101077.06
2018-06-16T04:02:44.289Z,101071.95
2018-06-16T04:03:49.740Z,101072.25
2018-06-16T04:04:55.190Z,101072.25
2018-06-16T04:06:00.798Z,101076.38
2018-06-16T04:07:06.287Z,101062.37
2018-06-16T04:08:12.193Z,101074.02
2018-06-16T04:09:17.618Z,101066.44
2018-06-16T04:10:23.046Z,101066.44
2018-06-16T04:11:28.466Z,101061.91
2018-06-16T04:12:33.881Z,101069.45
2018-06-16T04:13:39.295Z,101062.86
2018-06-16T04:14:44.699Z,101060.61
2018-06-16T04:15:50.111Z,101065.32
2018-06-16T04:16:55.538Z,101064.61
2018-06-16T04:18:01.002Z,101062.27
2018-06-16T04:19:06.445Z,101061.49
2018-06-16T04:20:11.858Z,101058.75
2018-06-16T04:21:17.642Z,101058.03
2018-06-16T04:22:23.035Z,101061.72
2018-06-16T04:23:28.453Z,101058.91
2018-06-16T04:24:33.609Z,101058.91
2018-06-16T04:25:38.925Z,101058.67
2018-06-16T04:26:44.184Z,101057.62
2018-06-16T04:27:49.561Z,101060.73
2018-06-16T04:28:54.990Z,101057.48
2018-06-16T04:30:00.389Z,101062.97
2018-06-16T04:31:06.728Z,101063.30
2018-06-16T04:32:12.089Z,101060.39
2018-06-16T04:33:18.699Z,101055.14
2018-06-16T04:34:24.085Z,101059.16
2018-06-16T04:35:29.489Z,101059.86
2018-06-16T04:36:34.885Z,101057.33
2018-06-16T04:37:41.182Z,101064.68
2018-06-16T04:38:46.605Z,101063.95
2018-06-16T04:39:52.048Z,101067.53
2018-06-16T04:40:57.464Z,101067.77
2018-06-16T04:42:02.888Z,101068.37
2018-06-16T04:43:08.811Z,101067.01
2018-06-16T04:44:14.217Z,101062.26
2018-06-16T04:45:19.697Z,101057.30
2018-06-16T04:46:25.101Z,101063.95
2018-06-16T04:47:30.509Z,101064.50
2018-06-16T04:48:36.088Z,101065.34
2018-06-16T04:49:41.515Z,101061.61
2018-06-16T04:50:48.022Z,101067.05
2018-06-16T04:51:53.606Z,101064.55
2018-06-16T04:52:58.988Z,101061.79
2018-06-16T04:54:04.513Z,101056.61
2018-06-16T04:55:10.084Z,101056.23
2018-06-16T04:56:15.530Z,101059.97
2018-06-16T04:57:20.959Z,101060.95
2018-06-16T04:58:26.346Z,101052.80
2018-06-16T04:59:31.812Z,101061.13
2018-06-16T05:00:37.277Z,101057.63
2018-06-16T05:01:42.669Z,101056.16
2018-06-16T05:02:48.155Z,101058.39
2018-06-16T05:03:53.555Z,101065.42
2018-06-16T05:04:58.961Z,101062.00
2018-06-16T05:06:04.419Z,101062.98
2018-06-16T05:07:09.858Z,101062.16
2018-06-16T05:08:15.376Z,101062.09
2018-06-16T05:09:20.782Z,101063.38
2018-06-16T05:10:26.228Z,101056.72
2018-06-16T05:11:31.662Z,101064.36
2018-06-16T05:12:37.170Z,101062.45
2018-06-16T05:13:42.586Z,101058.89
2018-06-16T05:14:48.507Z,101064.83
2018-06-16T05:15:53.975Z,101071.82
2018-06-16T05:16:59.470Z,101064.22
2018-06-16T05:18:05.217Z,101060.33
2018-06-16T05:19:10.637Z,101064.50
2018-06-16T05:20:16.058Z,101066.27
2018-06-16T05:21:21.502Z,101070.23
2018-06-16T05:22:26.926Z,101068.33
2018-06-16T05:23:32.321Z,101069.02
2018-06-16T05:24:37.774Z,101079.06
2018-06-16T05:25:43.450Z,101080.44
2018-06-16T05:26:48.937Z,101078.70
2018-06-16T05:27:54.502Z,101078.64
2018-06-16T05:28:59.951Z,101083.36
2018-06-16T05:30:05.485Z,101085.88
2018-06-16T05:31:11.022Z,101082.67
2018-06-16T05:32:16.613Z,101084.22
2018-06-16T05:33:22.135Z,101087.50
2018-06-16T05:35:30.534Z,101095.03
2018-06-16T05:36:36.019Z,101082.73
2018-06-16T05:37:41.637Z,101082.34
2018-06-16T05:38:47.301Z,101089.16
2018-06-16T05:39:52.790Z,101093.27
2018-06-16T05:40:58.238Z,101087.85
2018-06-16T05:42:03.670Z,101084.45
2018-06-16T05:43:09.146Z,101087.66
2018-06-16T05:44:14.574Z,101085.67
2018-06-16T05:45:20.689Z,101089.70
2018-06-16T05:46:26.177Z,101087.03
2018-06-16T05:47:31.584Z,101089.04
2018-06-16T05:48:37.238Z,101089.17
2018-06-16T05:49:43.221Z,101083.36
2018-06-16T05:50:48.765Z,101088.01
2018-06-16T05:51:55.457Z,101083.36
2018-06-16T05:53:00.914Z,101082.19
2018-06-16T05:54:06.560Z,101074.60
2018-06-16T05:55:12.101Z,101081.22
2018-06-16T05:56:17.652Z,101086.89
2018-06-16T05:57:23.153Z,101083.94
2018-06-16T05:58:28.777Z,101077.25
2018-06-16T05:59:33.966Z,101083.59
2018-06-16T06:00:39.935Z,101084.06
2018-06-16T06:01:45.702Z,101076.67
2018-06-16T06:02:51.341Z,101082.00
2018-06-16T06:03:56.950Z,101076.59
2018-06-16T06:05:02.465Z,101073.02
2018-06-16T06:06:08.017Z,101082.48
2018-06-16T06:07:13.721Z,101082.13
2018-06-16T06:08:19.234Z,101085.55
2018-06-16T06:09:24.893Z,101084.17
2018-06-16T06:10:30.656Z,101083.94
2018-06-16T06:11:36.173Z,101086.53
2018-06-16T06:12:42.069Z,101091.58
2018-06-16T06:13:47.562Z,101098.11
2018-06-16T06:14:53.160Z,101090.44
2018-06-16T06:15:58.861Z,101095.28
2018-06-16T06:17:04.309Z,101095.76
2018-06-16T06:18:09.745Z,101096.62
2018-06-16T06:19:15.281Z,101101.16
2018-06-16T06:20:20.769Z,101100.04
2018-06-16T06:21:26.278Z,101099.70
2018-06-16T06:22:31.654Z,101100.20
2018-06-16T06:23:37.090Z,101098.44
2018-06-16T06:24:42.656Z,101100.17
2018-06-16T06:25:48.222Z,101103.31
2018-06-16T06:26:53.790Z,101106.47
2018-06-16T06:28:00.221Z,101105.55
2018-06-16T06:29:05.605Z,101109.06
2018-06-16T06:30:11.074Z,101111.70
2018-06-16T06:31:16.746Z,101108.94
2018-06-16T06:32:22.401Z,101103.06
2018-06-16T06:33:27.956Z,101109.29
2018-06-16T06:34:33.449Z,101106.80
2018-06-16T06:35:38.877Z,101106.36
2018-06-16T06:36:44.542Z,101102.02
2018-06-16T06:37:49.954Z,101107.44
2018-06-16T06:38:55.419Z,101106.05
2018-06-16T06:40:00.940Z,101107.21
2018-06-16T06:41:06.386Z,101106.59
2018-06-16T06:42:11.813Z,101110.04
2018-06-16T06:43:17.413Z,101110.11
2018-06-16T06:44:23.056Z,101111.63
2018-06-16T06:45:28.589Z,101108.48
2018-06-16T06:46:34.157Z,101109.62
2018-06-16T06:47:39.549Z,101105.94
2018-06-16T06:48:45.123Z,101106.85
2018-06-16T06:49:50.548Z,101103.05
2018-06-16T06:50:56.172Z,101105.56
2018-06-16T06:52:01.646Z,101102.48
2018-06-16T06:53:07.105Z,101099.70
2018-06-16T06:54:12.734Z,101099.32
2018-06-16T06:55:18.293Z,101092.53
2018-06-16T06:56:23.900Z,101097.19
2018-06-16T06:57:29.331Z,101091.33
2018-06-16T06:58:34.829Z,101090.67
2018-06-16T06:59:40.849Z,101094.67
2018-06-16T07:00:46.277Z,101088.16
2018-06-16T07:01:51.727Z,101100.92
2018-06-16T07:02:57.340Z,101101.84
2018-06-16T07:04:02.842Z,101099.06
2018-06-16T07:05:08.246Z,101098.41
2018-06-16T07:06:14.466Z,101097.38
2018-06-16T07:07:19.888Z,101101.37
2018-06-16T07:08:25.357Z,101100.63
2018-06-16T07:09:30.872Z,101098.49
2018-06-16T07:10:36.511Z,101099.23
2018-06-16T07:11:41.916Z,101095.88
2018-06-16T07:12:47.363Z,101097.92
2018-06-16T07:13:53.409Z,101098.11
2018-06-16T07:14:58.762Z,101097.91
2018-06-16T07:16:04.798Z,101095.94
2018-06-16T07:17:10.228Z,101100.47
2018-06-16T07:18:15.693Z,101097.52
2018-06-16T07:19:21.329Z,101098.70
2018-06-16T07:20:26.934Z,101101.77
2018-06-16T07:21:32.394Z,101103.78
2018-06-16T07:22:38.154Z,101103.20
2018-06-16T07:23:43.587Z,101097.60
2018-06-16T07:24:49.094Z,101101.13
2018-06-16T07:25:54.502Z,101097.59
2018-06-16T07:26:59.997Z,101098.75
2018-06-16T07:28:05.731Z,101095.13
2018-06-16T07:29:11.156Z,101097.89
2018-06-16T07:30:16.600Z,101098.27
2018-06-16T07:31:22.001Z,101097.78
2018-06-16T07:32:27.428Z,101098.47
2018-06-16T07:33:32.873Z,101101.13
2018-06-16T07:34:38.287Z,101097.90
2018-06-16T07:35:43.740Z,101091.06
2018-06-16T07:36:49.166Z,101095.03
2018-06-16T07:37:54.693Z,101096.02
2018-06-16T07:39:00.138Z,101095.91
2018-06-16T07:40:05.679Z,101095.14
2018-06-16T07:41:11.243Z,101093.30
2018-06-16T07:42:16.692Z,101099.16
2018-06-16T07:43:22.324Z,101091.88
2018-06-16T07:44:27.776Z,101092.52
2018-06-16T07:45:33.188Z,101093.23
2018-06-16T07:46:38.997Z,101102.13
2018-06-16T07:47:44.839Z,101091.36
2018-06-16T07:48:51.133Z,101096.11
2018-06-16T07:49:57.317Z,101087.83
2018-06-16T07:51:02.868Z,101089.77
2018-06-16T07:52:08.342Z,101093.19
2018-06-16T07:53:13.801Z,101094.55
2018-06-16T07:54:19.582Z,101093.20
2018-06-16T07:55:25.038Z,101099.87
2018-06-16T07:56:30.990Z,101096.97
2018-06-16T07:57:37.139Z,101099.34
2018-06-16T07:58:45.810Z,101098.86
2018-06-16T07:59:51.301Z,101105.13
2018-06-16T08:00:57.700Z,101103.80
2018-06-16T08:02:03.110Z,101106.41
2018-06-16T08:03:08.884Z,101101.92
2018-06-16T08:04:14.237Z,101101.67
2018-06-16T08:05:20.384Z,101105.61
2018-06-16T08:06:26.070Z,101102.94
2018-06-16T08:07:31.485Z,101100.93
2018-06-16T08:08:37.787Z,101106.86
2018-06-16T08:09:43.227Z,101094.78
2018-06-16T08:10:49.337Z,101093.16
2018-06-16T08:11:55.019Z,101094.81
2018-06-16T08:13:00.597Z,101096.77
2018-06-16T08:14:06.149Z,101099.25
2018-06-16T08:15:11.585Z,101097.45
2018-06-16T08:16:17.009Z,101097.89
2018-06-16T08:17:22.458Z,101098.66
2018-06-16T08:18:28.151Z,101098.70
2018-06-16T08:19:33.568Z,101098.40
2018-06-16T08:20:38.989Z,101100.71
2018-06-16T08:21:44.580Z,101097.61
2018-06-16T08:22:50.062Z,101100.73
2018-06-16T08:23:56.720Z,101094.94
2018-06-16T08:25:01.885Z,101100.19
2018-06-16T08:26:08.319Z,101096.62
2018-06-16T08:27:13.773Z,101101.19
2018-06-16T08:28:19.258Z,101099.20
2018-06-16T08:29:25.162Z,101099.05
2018-06-16T08:30:30.637Z,101106.83
2018-06-16T08:31:36.118Z,101100.25
2018-06-16T08:32:42.394Z,101099.36
2018-06-16T08:33:47.841Z,101103.08
2018-06-16T08:34:53.312Z,101099.09
2018-06-16T08:35:59.074Z,101102.70
2018-06-16T08:37:04.698Z,101101.52
2018-06-16T08:38:10.533Z,101105.34
2018-06-16T08:39:16.356Z,101101.42
2018-06-16T08:40:21.956Z,101099.78
2018-06-16T08:41:27.441Z,101100.28
2018-06-16T08:42:32.911Z,101104.31
2018-06-16T08:43:38.497Z,101105.75
2018-06-16T08:44:44.058Z,101091.45
2018-06-16T08:45:49.660Z,101100.72
2018-06-16T08:46:55.150Z,101092.20
2018-06-16T08:48:01.184Z,101099.92
2018-06-16T08:49:06.949Z,101098.76
2018-06-16T08:50:13.114Z,101100.78
2018-06-16T08:51:19.713Z,101098.88
2018-06-16T08:52:25.136Z,101097.45
2018-06-16T08:53:30.549Z,101104.86
2018-06-16T08:54:36.033Z,101102.58
2018-06-16T08:55:41.509Z,101107.86
2018-06-16T08:56:46.956Z,101107.38
2018-06-16T08:57:52.394Z,101102.73
2018-06-16T08:58:58.861Z,101107.26
2018-06-16T09:00:04.424Z,101104.11
2018-06-16T09:01:09.865Z,101102.24
2018-06-16T09:02:15.331Z,101101.89
2018-06-16T09:03:21.826Z,101105.48
2018-06-16T09:04:27.270Z,101105.25
2018-06-16T09:05:33.048Z,101106.30
2018-06-16T09:06:38.541Z,101107.87
2018-06-16T09:07:44.808Z,101103.66
2018-06-16T09:08:50.377Z,101102.13
2018-06-16T09:09:55.571Z,101102.24
2018-06-16T09:11:01.061Z,101100.32
2018-06-16T09:12:06.534Z,101116.20
2018-06-16T09:13:12.066Z,101109.25
2018-06-16T09:14:17.622Z,101109.86
2018-06-16T09:15:23.206Z,101109.27
2018-06-16T09:16:29.513Z,101110.60
2018-06-16T09:17:36.170Z,101102.97
2018-06-16T09:18:41.584Z,101101.86
2018-06-16T09:19:48.139Z,101107.84
2018-06-16T09:20:53.799Z,101114.41
2018-06-16T09:21:59.858Z,101111.05
2018-06-16T09:23:05.120Z,101110.08
2018-06-16T09:24:11.125Z,101109.84
2018-06-16T09:25:16.678Z,101109.86
2018-06-16T09:26:22.298Z,101104.99
2018-06-16T09:27:27.969Z,101106.66
2018-06-16T09:28:33.217Z,101105.94
2018-06-16T09:29:38.636Z,101112.12
2018-06-16T09:30:44.438Z,101106.26
2018-06-16T09:31:50.043Z,101112.00
2018-06-16T09:32:55.525Z,101114.00
2018-06-16T09:34:01.049Z,101122.95
2018-06-16T09:35:06.568Z,101117.80
2018-06-16T09:36:12.280Z,101123.83
2018-06-16T09:37:18.046Z,101121.93
2018-06-16T09:38:23.576Z,101118.09
2018-06-16T09:39:29.071Z,101113.09
2018-06-16T09:40:34.554Z,101116.80
2018-06-16T09:41:41.092Z,101120.36
2018-06-16T09:42:46.753Z,101119.78
2018-06-16T09:43:55.090Z,101121.29
2018-06-16T09:45:00.374Z,101116.29
2018-06-16T09:46:06.585Z,101120.21
2018-06-16T09:47:12.095Z,101124.01
2018-06-16T09:48:18.147Z,101124.23
2018-06-16T09:49:23.681Z,101123.52
2018-06-16T09:50:29.136Z,101120.54
2018-06-16T09:51:34.661Z,101121.13
2018-06-16T09:52:40.091Z,101125.05
2018-06-16T09:53:45.549Z,101123.73
2018-06-16T09:54:51.049Z,101126.15
2018-06-16T09:55:56.481Z,101125.36
2018-06-16T09:57:01.938Z,101121.16
2018-06-16T09:58:07.141Z,101128.42
2018-06-16T09:59:12.608Z,101128.23
2018-06-16T10:00:24.886Z,101124.39
2018-06-16T10:01:30.334Z,101132.28
2018-06-16T10:02:35.480Z,101123.66
2018-06-16T10:03:40.901Z,101124.62
2018-06-16T10:04:46.505Z,101132.20
2018-06-16T10:05:51.931Z,101132.09
2018-06-16T10:06:57.353Z,101125.40
2018-06-16T10:08:02.781Z,101128.64
2018-06-16T10:09:09.442Z,101132.53
2018-06-16T10:10:15.660Z,101132.90
2018-06-16T10:11:21.074Z,101125.87
2018-06-16T10:12:26.606Z,101131.09
2018-06-16T10:13:32.017Z,101131.94
2018-06-16T10:14:37.428Z,101134.87
2018-06-16T10:15:42.771Z,101129.13
2018-06-16T10:16:48.085Z,101133.50
2018-06-16T10:17:53.533Z,101136.25
2018-06-16T10:18:59.101Z,101124.58
2018-06-16T10:20:04.599Z,101132.37
2018-06-16T10:21:10.279Z,101127.81
2018-06-16T10:22:15.662Z,101127.77
2018-06-16T10:23:21.078Z,101132.63
2018-06-16T10:24:26.476Z,101131.69
2018-06-16T10:25:31.996Z,101130.25
2018-06-16T10:26:37.471Z,101123.17
2018-06-16T10:27:43.194Z,101125.64
2018-06-16T10:28:48.673Z,101123.69
2018-06-16T10:29:54.272Z,101128.45
2018-06-16T10:30:59.681Z,101125.52
2018-06-16T10:32:05.117Z,101127.23
2018-06-16T10:33:10.627Z,101122.63
2018-06-16T10:34:16.074Z,101115.89
2018-06-16T10:35:21.495Z,101118.15
2018-06-16T10:36:26.956Z,101120.86
2018-06-16T10:37:32.361Z,101124.75
2018-06-16T10:38:37.826Z,101117.29
2018-06-16T10:39:43.236Z,101117.20
2018-06-16T10:40:48.710Z,101122.67
2018-06-16T10:41:54.124Z,101119.42
2018-06-16T10:42:59.543Z,101114.54
2018-06-16T10:44:04.978Z,101118.56
2018-06-16T10:45:10.558Z,101124.39
2018-06-16T10:46:16.010Z,101126.53
2018-06-16T10:47:21.208Z,101125.06
2018-06-16T10:48:26.661Z,101126.95
2018-06-16T10:49:32.084Z,101117.17
2018-06-16T10:50:37.540Z,101123.25
2018-06-16T10:51:43.035Z,101119.83
2018-06-16T10:52:48.497Z,101122.39
2018-06-16T10:53:53.920Z,101125.84
2018-06-16T10:54:59.486Z,101113.48
2018-06-16T10:56:05.138Z,101117.24
2018-06-16T10:57:10.577Z,101111.28
2018-06-16T10:58:16.003Z,101111.64
2018-06-16T10:59:21.413Z,101115.94
2018-06-16T11:00:26.984Z,101115.11
2018-06-16T11:01:32.640Z,101112.92
2018-06-16T11:02:38.053Z,101104.52
2018-06-16T11:03:43.442Z,101106.85
2018-06-16T11:04:48.865Z,101112.41
2018-06-16T11:05:54.320Z,101110.64
2018-06-16T11:06:59.802Z,101111.24
2018-06-16T11:08:05.294Z,101111.81
2018-06-16T11:09:11.610Z,101114.75
2018-06-16T11:10:17.025Z,101113.53
2018-06-16T11:11:22.521Z,101111.30
2018-06-16T11:12:28.048Z,101115.63
2018-06-16T11:13:33.465Z,101118.08
2018-06-16T11:14:39.146Z,101110.93
2018-06-16T11:15:44.585Z,101111.19
2018-06-16T11:16:50.030Z,101112.14
2018-06-16T11:17:55.481Z,101119.70
2018-06-16T11:19:00.950Z,101115.68
2018-06-16T11:20:06.792Z,101117.12
2018-06-16T11:21:12.245Z,101113.20
2018-06-16T11:22:17.825Z,101104.99
2018-06-16T11:23:23.226Z,101106.34
2018-06-16T11:24:28.640Z,101106.73
2018-06-16T11:25:34.100Z,101101.87
2018-06-16T11:26:39.521Z,101094.95
2018-06-16T11:27:45.059Z,101098.56
2018-06-16T11:28:50.706Z,101098.37
2018-06-16T11:29:56.601Z,101101.84
2018-06-16T11:31:02.194Z,101100.58
2018-06-16T11:32:07.630Z,101098.77
2018-06-16T11:33:13.359Z,101099.02
2018-06-16T11:34:18.897Z,101101.41
2018-06-16T11:35:24.348Z,101099.60
2018-06-16T11:36:30.073Z,101099.20
2018-06-16T11:37:35.634Z,101099.53
2018-06-16T11:38:41.104Z,101100.20
2018-06-16T11:39:46.304Z,101105.25
2018-06-16T11:40:51.810Z,101105.27
2018-06-16T11:41:57.312Z,101100.34
2018-06-16T11:43:02.894Z,101097.92
2018-06-16T11:44:08.599Z,101100.66
2018-06-16T11:45:14.024Z,101098.59
2018-06-16T11:46:19.546Z,101096.94
2018-06-16T11:47:25.118Z,101099.02
2018-06-16T11:48:30.722Z,101089.44
2018-06-16T11:49:36.185Z,101091.77
2018-06-16T11:50:41.725Z,101090.39
2018-06-16T11:51:47.272Z,101084.59
2018-06-16T11:52:52.696Z,101084.02
2018-06-16T11:53:58.146Z,101087.58
2018-06-16T11:55:03.790Z,101083.31
2018-06-16T11:56:09.648Z,101083.70
2018-06-16T11:57:15.160Z,101078.21
2018-06-16T11:58:20.589Z,101081.88
2018-06-16T11:59:26.204Z,101076.72
2018-06-16T12:00:31.754Z,101076.47
2018-06-16T12:01:37.248Z,101077.63
2018-06-16T12:02:42.689Z,101075.40
2018-06-16T12:03:48.317Z,101076.91
2018-06-16T12:04:53.780Z,101069.88
2018-06-16T12:05:59.501Z,101067.08
2018-06-16T12:07:05.069Z,101067.83
2018-06-16T12:08:10.757Z,101072.69
2018-06-16T12:09:16.585Z,101064.63
2018-06-16T12:10:22.204Z,101067.84
2018-06-16T12:11:27.841Z,101059.42
2018-06-16T12:12:33.347Z,101062.08
2018-06-16T12:13:38.828Z,101058.50
2018-06-16T12:14:44.571Z,101060.46
2018-06-16T12:15:50.200Z,101058.84
2018-06-16T12:16:55.689Z,101053.55
2018-06-16T12:18:01.222Z,101057.06
2018-06-16T12:19:07.085Z,101058.09
2018-06-16T12:20:12.539Z,101058.01
2018-06-16T12:21:18.066Z,101059.81
2018-06-16T12:22:23.605Z,101056.36
2018-06-16T12:23:29.073Z,101059.81
2018-06-16T12:24:34.752Z,101060.59
2018-06-16T12:25:40.268Z,101060.56
2018-06-16T12:26:45.725Z,101054.06
2018-06-16T12:27:51.285Z,101058.66
2018-06-16T12:28:56.810Z,101059.84
2018-06-16T12:30:03.090Z,101063.51